Time;durP1;ratioP1;P1;durP2;ratioP2;P2;SDS_P1;SDS_P2;PMS_P1;PMS_P2;Temp;Humidity;BMP_temperature;BMP_pressure;BME280_temperature;BME280_humidity;BME280_pressure;Samples;Min_cycle;Max_cycle;Signal;HPM_P1;HPM_P2
2023/01/19 00:01:27;;;;;;;;;;;;;;;11.48;55.13;97439.44;4468334;32;35199;-96
2023/01/19 00:03:54;;;;;;;;;;;;;;;11.64;54.79;97440.84;4482415;32;34965;-94
2023/01/19 00:06:21;;;;;;;;;;;;;;;12.02;53.71;97435.81;4482052;32;34012;-92
2023/01/19 00:08:51;;;;;;;;;;;;;;;12.28;52.81;97432.66;4483039;32;34250;-82
2023/01/19 00:11:19;;;;;;;;;;;;;;;11.32;55.03;97438.84;4482469;32;34121;-86
2023/01/19 00:13:49;;;;;;;;;;;;;;;11.03;55.73;97446.28;4482674;32;33221;-80
2023/01/19 00:16:17;;;;;;;;;;;;;;;11.60;53.99;97438.34;4481540;32;33864;-96
2023/01/19 00:18:44;;;;;;;;;;;;;;;11.77;53.84;97440.59;4482604;32;34753;-96
2023/01/19 00:21:13;;;;;;;;;;;;;;;11.39;54.55;97439.59;4470821;32;34938;-80
2023/01/19 00:23:41;;;;;;;;;;;;;;;11.95;53.15;97429.88;4483438;32;33129;-95
2023/01/19 00:26:09;;;;;;;;;;;;;;;11.94;52.74;97438.56;4482778;32;35207;-80
2023/01/19 00:28:36;;;;;;;;;;;;;;;11.90;52.99;97431.72;4467798;32;34100;-80
2023/01/19 00:31:04;;;;;;;;;;;;;;;11.98;52.67;97428.97;4473361;32;33632;-80
2023/01/19 00:33:32;;;;;;;;;;;;;;;12.15;52.37;97430.31;4473973;32;33458;-91
2023/01/19 00:35:59;;;;;;;;;;;;;;;12.45;51.73;97429.69;4481075;32;34155;-81
2023/01/19 00:38:26;;;;;;;;;;;;;;;12.40;51.69;97432.37;4484701;32;34245;-81
2023/01/19 00:40:53;;;;;;;;;;;;;;;12.42;51.20;97425.41;4484251;32;34080;-81
2023/01/19 00:43:20;;;;;;;;;;;;;;;12.37;51.48;97422.06;4484191;32;33965;-81
2023/01/19 00:45:48;;;;;;;;;;;;;;;12.24;51.39;97428.44;4484248;32;33837;-85
2023/01/19 00:48:15;;;;;;;;;;;;;;;12.08;52.06;97423.53;4484667;32;34439;-84
2023/01/19 00:50:42;;;;;;;;;;;;;;;12.25;51.87;97417.13;4483849;32;33771;-93
2023/01/19 00:53:10;;;;;;;;;;;;;;;12.23;51.97;97418.91;4455996;32;877325;-86
2023/01/19 00:55:37;;;;;;;;;;;;;;;12.03;52.43;97417.59;4470100;32;33757;-82
2023/01/19 00:58:06;;;;;;;;;;;;;;;10.67;55.64;97431.28;4484068;32;33546;-81
2023/01/19 01:00:33;;;;;;;;;;;;;;;11.50;53.68;97416.87;4484053;32;35144;-96
2023/01/19 01:03:00;;;;;;;;;;;;;;;11.40;53.83;97423.13;4483427;32;33922;-94
2023/01/19 01:05:28;;;;;;;;;;;;;;;11.17;54.73;97421.84;4483738;32;34087;-80
2023/01/19 01:07:56;;;;;;;;;;;;;;;10.95;54.80;97426.53;4484141;32;35191;-93
2023/01/19 01:10:24;;;;;;;;;;;;;;;11.55;52.95;97425.44;4484014;32;33727;-94
2023/01/19 01:12:52;;;;;;;;;;;;;;;10.81;54.64;97425.87;4483882;32;33437;-83
2023/01/19 01:15:25;;;;;;;;;;;;;;;10.30;56.50;97424.91;4484016;32;35013;-94
2023/01/19 01:17:52;;;;;;;;;;;;;;;10.52;55.74;97426.31;4469973;32;35345;-96
2023/01/19 01:20:20;;;;;;;;;;;;;;;10.95;54.86;97449.00;4483313;32;34020;-82
2023/01/19 01:22:49;;;;;;;;;;;;;;;10.73;54.91;97439.84;4483703;32;33179;-95
2023/01/19 01:25:17;;;;;;;;;;;;;;;10.51;55.41;97436.72;4469797;32;34995;-81
2023/01/19 01:27:44;;;;;;;;;;;;;;;10.75;55.15;97425.13;4482315;32;33902;-81
2023/01/19 01:30:12;;;;;;;;;;;;;;;11.27;53.18;97429.44;4479771;32;34945;-94
2023/01/19 01:32:39;;;;;;;;;;;;;;;11.13;53.84;97435.69;4469533;32;33742;-92
2023/01/19 01:35:07;;;;;;;;;;;;;;;11.31;53.29;97431.09;4484100;32;33947;-80
2023/01/19 01:37:35;;;;;;;;;;;;;;;11.45;52.42;97439.47;4483907;32;34535;-82
2023/01/19 01:40:03;;;;;;;;;;;;;;;10.90;54.80;97443.03;4484159;32;34482;-80
2023/01/19 01:42:31;;;;;;;;;;;;;;;10.75;55.01;97446.72;4484078;32;33590;-90
2023/01/19 01:45:00;;;;;;;;;;;;;;;10.40;55.51;97452.41;4483212;32;34162;-82
2023/01/19 01:47:41;;;;;;;;;;;;;;;8.95;59.50;97462.63;4470437;32;34819;-86
2023/01/19 01:50:16;;;;;;;;;;;;;;;10.22;55.87;97454.34;4469645;32;33832;-88
2023/01/19 01:53:05;;;;;;;;;;;;;;;9.63;57.94;97460.25;4489072;32;34135;-83
2023/01/19 01:55:35;;;;;;;;;;;;;;;10.46;55.21;97460.97;4477419;32;34892;-93
2023/01/19 01:58:02;;;;;;;;;;;;;;;9.62;57.31;97474.94;4460481;32;33991;-81
2023/01/19 02:02:49;;;;;;;;;;;;;;;9.84;55.73;97478.13;4472083;32;34266;-82
2023/01/19 02:03:24;;;;;;;;;;;;;;;9.38;57.17;97488.09;4486435;32;33049;-84
2023/01/19 02:05:52;;;;;;;;;;;;;;;9.21;58.42;97499.47;4475357;32;33671;-91
2023/01/19 02:13:59;;;;;;;;;;;;;;;9.49;57.80;97471.59;4487753;32;33575;-82
2023/01/19 02:16:26;;;;;;;;;;;;;;;9.46;57.73;97442.31;4488818;32;34223;-82
2023/01/19 02:18:53;;;;;;;;;;;;;;;10.07;55.83;97417.44;4487134;32;33956;-81
2023/01/19 02:21:22;;;;;;;;;;;;;;;9.36;57.69;97426.06;4486875;32;34883;-81
2023/01/19 02:23:50;;;;;;;;;;;;;;;9.84;56.03;97433.25;4473744;32;33146;-83
2023/01/19 02:26:21;;;;;;;;;;;;;;;9.94;56.08;97459.03;4471889;32;34048;-86
2023/01/19 02:28:51;;;;;;;;;;;;;;;9.56;56.94;97469.81;4470690;32;35005;-88
2023/01/19 02:31:19;;;;;;;;;;;;;;;9.58;56.71;97482.72;4460092;32;34327;-94
2023/01/19 02:33:46;;;;;;;;;;;;;;;10.68;53.09;97483.97;4470036;32;33765;-91
2023/01/19 02:36:14;;;;;;;;;;;;;;;11.13;52.02;97479.78;4481778;32;33955;-87
2023/01/19 02:38:41;;;;;;;;;;;;;;;10.64;53.42;97459.81;4464683;32;33863;-83
2023/01/19 02:41:08;;;;;;;;;;;;;;;10.83;52.77;97450.03;4468035;32;34091;-81
2023/01/19 02:43:36;;;;;;;;;;;;;;;10.50;53.80;97456.59;4472003;32;32934;-81
2023/01/19 02:46:07;;;;;;;;;;;;;;;10.17;54.55;97453.56;4478665;32;34354;-90
2023/01/19 02:48:34;;;;;;;;;;;;;;;11.07;52.43;97446.19;4478014;32;34302;-86
2023/01/19 02:51:22;;;;;;;;;;;;;;;10.52;53.58;97438.44;4474024;32;34115;-94
2023/01/19 02:53:57;;;;;;;;;;;;;;;11.01;51.86;97453.22;4470479;32;34039;-83
2023/01/19 02:56:38;;;;;;;;;;;;;;;11.63;50.02;97448.66;4465673;32;33518;-86
2023/01/19 02:59:05;;;;;;;;;;;;;;;11.39;50.55;97444.78;4456530;32;33953;-96
2023/01/19 03:01:37;;;;;;;;;;;;;;;10.92;51.84;97460.28;4473878;32;35106;-94
2023/01/19 03:04:21;;;;;;;;;;;;;;;10.40;52.91;97460.19;4468208;32;33560;-90
2023/01/19 03:06:51;;;;;;;;;;;;;;;10.63;52.62;97452.09;4457290;32;34987;-81
2023/01/19 03:09:40;;;;;;;;;;;;;;;10.20;53.44;97458.69;4483179;32;34434;-94
2023/01/19 03:12:07;;;;;;;;;;;;;;;10.74;52.26;97452.78;4478376;32;34850;-93
2023/01/19 03:14:36;;;;;;;;;;;;;;;10.66;52.38;97465.84;4478920;32;33094;-95
2023/01/19 03:17:03;;;;;;;;;;;;;;;10.57;52.92;97471.19;4467360;32;34232;-81
2023/01/19 03:19:32;;;;;;;;;;;;;;;9.74;54.32;97492.91;4465443;32;35079;-80
2023/01/19 03:22:02;;;;;;;;;;;;;;;10.77;51.77;97483.00;4466026;32;34933;-88
2023/01/19 03:24:30;;;;;;;;;;;;;;;11.14;50.55;97489.31;4457764;32;33045;-96
2023/01/19 03:27:01;;;;;;;;;;;;;;;11.07;51.05;97466.94;4461022;32;34530;-84
2023/01/19 03:29:30;;;;;;;;;;;;;;;10.85;51.74;97437.91;4468014;32;34223;-92
2023/01/19 03:31:58;;;;;;;;;;;;;;;11.31;50.52;97418.13;4475984;32;33697;-82
2023/01/19 03:34:25;;;;;;;;;;;;;;;11.37;50.21;97415.44;4464731;32;33947;-88
2023/01/19 03:36:57;;;;;;;;;;;;;;;10.82;51.46;97416.38;4476616;32;35538;-89
2023/01/19 03:39:24;;;;;;;;;;;;;;;11.11;50.95;97418.47;4472467;32;34105;-81
2023/01/19 03:41:53;;;;;;;;;;;;;;;10.86;51.44;97412.84;4456140;32;34053;-81
2023/01/19 03:44:21;;;;;;;;;;;;;;;9.50;54.79;97395.69;4453986;32;34108;-91
2023/01/19 03:46:49;;;;;;;;;;;;;;;10.06;53.67;97400.19;4464029;32;35063;-80
2023/01/19 03:49:16;;;;;;;;;;;;;;;9.36;55.22;97387.25;4471096;32;35098;-82
2023/01/19 03:51:43;;;;;;;;;;;;;;;9.89;53.74;97397.84;4466342;32;33880;-94
2023/01/19 03:54:10;;;;;;;;;;;;;;;9.31;55.40;97395.94;4461704;32;33421;-88
2023/01/19 03:56:38;;;;;;;;;;;;;;;8.99;56.56;97397.13;4459459;32;34973;-90
2023/01/19 03:59:05;;;;;;;;;;;;;;;9.23;56.13;97403.75;4464399;32;34605;-83
2023/01/19 04:01:33;;;;;;;;;;;;;;;9.63;55.15;97430.06;4484548;32;34182;-94
2023/01/19 04:04:00;;;;;;;;;;;;;;;9.06;56.42;97462.53;4483404;32;33384;-90
2023/01/19 04:06:27;;;;;;;;;;;;;;;9.10;56.75;97479.75;4468875;32;34162;-96
2023/01/19 04:08:55;;;;;;;;;;;;;;;8.78;57.36;97466.19;4484693;32;34076;-94
2023/01/19 04:11:22;;;;;;;;;;;;;;;8.43;58.19;97463.84;4469160;32;34209;-94
2023/01/19 04:13:50;;;;;;;;;;;;;;;8.84;57.61;97482.53;4468923;32;33383;-83
2023/01/19 04:16:19;;;;;;;;;;;;;;;9.23;56.28;97483.91;4472085;32;34767;-90
2023/01/19 04:18:48;;;;;;;;;;;;;;;8.83;56.94;97475.66;4476283;32;35289;-80
2023/01/19 04:21:15;;;;;;;;;;;;;;;9.64;54.82;97475.75;4476952;32;33907;-79
2023/01/19 04:23:43;;;;;;;;;;;;;;;8.65;57.29;97467.16;4480417;32;32890;-95
2023/01/19 04:26:10;;;;;;;;;;;;;;;8.19;58.31;97456.22;4484429;32;34046;-95
2023/01/19 04:28:38;;;;;;;;;;;;;;;7.43;61.07;97452.22;4484346;32;35338;-81
2023/01/19 04:31:06;;;;;;;;;;;;;;;7.83;60.37;97446.91;4477928;32;35031;-88
2023/01/19 04:33:34;;;;;;;;;;;;;;;7.80;60.03;97445.19;4468555;32;33354;-92
2023/01/19 04:36:02;;;;;;;;;;;;;;;8.70;56.45;97456.78;4469275;32;33958;-81
2023/01/19 04:38:30;;;;;;;;;;;;;;;7.37;59.52;97450.50;4484136;32;35266;-85
2023/01/19 04:40:57;;;;;;;;;;;;;;;6.73;61.88;97450.53;4478167;32;34654;-81
2023/01/19 04:43:24;;;;;;;;;;;;;;;6.72;61.92;97444.53;4474274;32;33770;-81
2023/01/19 04:45:52;;;;;;;;;;;;;;;7.45;60.03;97443.59;4483829;32;34028;-81
2023/01/19 04:48:19;;;;;;;;;;;;;;;7.43;59.86;97452.22;4484360;32;34114;-81
2023/01/19 04:50:46;;;;;;;;;;;;;;;7.91;57.57;97442.56;4480076;32;34039;-81
2023/01/19 04:53:15;;;;;;;;;;;;;;;7.01;60.76;97479.75;4484141;32;33293;-80
2023/01/19 04:55:42;;;;;;;;;;;;;;;7.70;58.77;97474.47;4483664;32;35134;-79
2023/01/19 04:58:09;;;;;;;;;;;;;;;8.44;56.45;97472.44;4483668;32;34418;-81
2023/01/19 05:00:37;;;;;;;;;;;;;;;7.31;59.25;97472.00;4479520;32;34453;-79
2023/01/19 05:03:04;;;;;;;;;;;;;;;6.96;60.35;97476.31;4468425;32;33258;-91
2023/01/19 05:05:32;;;;;;;;;;;;;;;6.59;61.79;97486.56;4477103;32;35000;-85
2023/01/19 05:07:59;;;;;;;;;;;;;;;7.75;58.17;97471.00;4483161;32;35281;-81
2023/01/19 05:10:27;;;;;;;;;;;;;;;7.38;58.52;97466.81;4467225;32;34431;-82
2023/01/19 05:12:54;;;;;;;;;;;;;;;6.87;59.73;97453.13;4482764;32;33135;-81
2023/01/19 05:15:21;;;;;;;;;;;;;;;7.67;57.80;97456.44;4483617;32;33981;-83
2023/01/19 05:17:49;;;;;;;;;;;;;;;7.54;57.72;97471.94;4468647;32;34107;-79
2023/01/19 05:20:16;;;;;;;;;;;;;;;8.21;56.38;97486.31;4482702;32;34302;-80
2023/01/19 05:22:49;;;;;;;;;;;;;;;8.62;55.27;97505.06;4482522;32;33576;-81
2023/01/19 05:25:17;;;;;;;;;;;;;;;7.98;56.69;97512.22;4467341;32;34187;-80
2023/01/19 05:27:45;;;;;;;;;;;;;;;8.47;55.53;97524.09;4453523;32;34489;-79
2023/01/19 05:30:12;;;;;;;;;;;;;;;8.73;54.61;97534.28;4481426;32;34403;-80
2023/01/19 05:32:39;;;;;;;;;;;;;;;8.98;54.23;97542.72;4465851;32;32974;-81
2023/01/19 05:35:07;;;;;;;;;;;;;;;9.41;53.04;97532.03;4467912;32;34814;-91
2023/01/19 05:37:34;;;;;;;;;;;;;;;9.07;54.03;97521.12;4477315;32;34485;-80
2023/01/19 05:40:02;;;;;;;;;;;;;;;9.23;52.82;97515.81;4482158;32;33901;-80
2023/01/19 05:42:30;;;;;;;;;;;;;;;9.58;52.50;97514.63;4469443;32;33187;-95
2023/01/19 05:44:59;;;;;;;;;;;;;;;10.23;50.51;97505.28;4481016;32;33756;-81
2023/01/19 05:47:29;;;;;;;;;;;;;;;10.70;49.73;97506.41;4481712;32;34098;-81
2023/01/19 05:49:56;;;;;;;;;;;;;;;10.42;50.31;97500.75;4483318;32;34835;-82
2023/01/19 05:52:23;;;;;;;;;;;;;;;9.28;53.22;97505.44;4469562;32;33362;-92
2023/01/19 05:54:53;;;;;;;;;;;;;;;8.71;54.51;97508.47;4478045;32;33677;-83
2023/01/19 05:57:20;;;;;;;;;;;;;;;8.59;55.31;97498.19;4482874;32;34011;-94
2023/01/19 05:59:48;;;;;;;;;;;;;;;7.31;58.39;97505.50;4477591;32;34523;-85
2023/01/19 06:02:15;;;;;;;;;;;;;;;7.23;59.55;97496.91;4480305;32;32625;-82
2023/01/19 06:04:45;;;;;;;;;;;;;;;7.19;59.66;97505.50;4469578;32;33902;-83
2023/01/19 06:07:12;;;;;;;;;;;;;;;8.32;56.03;97504.31;4483462;32;34915;-83
2023/01/19 06:09:39;;;;;;;;;;;;;;;8.68;54.73;97507.63;4483132;32;34306;-88
2023/01/19 06:12:07;;;;;;;;;;;;;;;9.16;53.48;97500.34;4483658;32;34253;-82
2023/01/19 06:14:35;;;;;;;;;;;;;;;8.61;55.35;97472.34;4483525;32;34279;-82
2023/01/19 06:17:04;;;;;;;;;;;;;;;8.78;55.09;97478.25;4483249;32;34312;-85
2023/01/19 06:19:33;;;;;;;;;;;;;;;9.43;53.56;97478.56;4482919;32;34355;-89
2023/01/19 06:22:01;;;;;;;;;;;;;;;8.24;55.71;97467.38;4468908;32;33593;-82
2023/01/19 06:24:28;;;;;;;;;;;;;;;9.06;53.96;97453.06;4483507;32;34921;-82
2023/01/19 06:26:56;;;;;;;;;;;;;;;8.15;56.39;97445.06;4483095;32;35328;-87
2023/01/19 06:29:24;;;;;;;;;;;;;;;7.14;60.03;97447.94;4482634;32;34210;-81
2023/01/19 06:31:51;;;;;;;;;;;;;;;7.51;59.24;97453.91;4482701;32;34105;-93
2023/01/19 06:34:19;;;;;;;;;;;;;;;7.55;59.38;97462.47;4483408;32;35102;-81
2023/01/19 06:36:46;;;;;;;;;;;;;;;8.28;57.23;97488.00;4482158;32;34415;-88
2023/01/19 06:39:13;;;;;;;;;;;;;;;8.75;56.02;97504.97;4482023;32;34265;-87
2023/01/19 06:41:41;;;;;;;;;;;;;;;7.39;59.51;97509.78;4483579;32;33205;-88
2023/01/19 06:44:08;;;;;;;;;;;;;;;8.46;56.63;97512.03;4469481;32;33857;-82
2023/01/19 06:46:35;;;;;;;;;;;;;;;8.45;56.81;97526.69;4483724;32;34126;-88
2023/01/19 06:49:02;;;;;;;;;;;;;;;8.43;56.62;97517.22;4483653;32;33962;-88
2023/01/19 06:51:30;;;;;;;;;;;;;;;9.05;55.05;97513.34;4483704;32;33114;-91
2023/01/19 06:53:57;;;;;;;;;;;;;;;8.06;57.98;97501.84;4483296;32;34006;-85
2023/01/19 06:56:25;;;;;;;;;;;;;;;8.02;58.02;97485.53;4483583;32;34232;-87
2023/01/19 06:58:53;;;;;;;;;;;;;;;7.25;60.37;97500.34;4483301;32;34376;-81
2023/01/19 07:01:20;;;;;;;;;;;;;;;7.11;61.25;97494.34;4483170;32;33551;-81
2023/01/19 07:04:07;;;;;;;;;;;;;;;6.99;61.53;97494.34;4483239;32;33563;-87
2023/01/19 07:06:34;;;;;;;;;;;;;;;7.47;60.19;97485.72;4483385;32;34519;-82
2023/01/19 07:09:05;;;;;;;;;;;;;;;7.48;60.63;97496.88;4483510;32;34262;-81
2023/01/19 07:11:32;;;;;;;;;;;;;;;7.23;61.82;97491.75;4483500;32;33638;-85
2023/01/19 07:14:00;;;;;;;;;;;;;;;7.22;62.40;97494.34;4483092;32;35024;-88
2023/01/19 07:16:27;;;;;;;;;;;;;;;8.31;58.83;97494.03;4483503;32;34373;-86
2023/01/19 07:18:54;;;;;;;;;;;;;;;8.45;57.94;97492.25;4468631;32;33444;-81
2023/01/19 07:21:22;;;;;;;;;;;;;;;8.52;58.23;97510.28;4483049;32;32789;-86
2023/01/19 07:23:50;;;;;;;;;;;;;;;8.37;58.74;97517.22;4483205;32;34006;-83
2023/01/19 07:26:19;;;;;;;;;;;;;;;7.39;60.46;97522.69;4483170;32;34714;-82
2023/01/19 07:28:47;;;;;;;;;;;;;;;8.12;59.20;97526.81;4469132;32;35172;-90
2023/01/19 07:31:15;;;;;;;;;;;;;;;8.40;58.28;97535.31;4469092;32;33631;-82
2023/01/19 07:33:42;;;;;;;;;;;;;;;9.05;55.91;97539.22;4469246;32;34549;-88
2023/01/19 07:36:09;;;;;;;;;;;;;;;9.16;55.58;97532.22;4483097;32;33834;-81
2023/01/19 07:38:37;;;;;;;;;;;;;;;9.27;55.40;97532.16;4483175;32;34300;-89
2023/01/19 07:41:05;;;;;;;;;;;;;;;9.05;56.07;97534.03;4483158;32;33446;-91
2023/01/19 07:43:32;;;;;;;;;;;;;;;8.68;57.46;97534.31;4484898;32;34014;-82
2023/01/19 07:46:02;;;;;;;;;;;;;;;8.51;57.79;97542.13;4485081;32;34877;-93
2023/01/19 07:48:29;;;;;;;;;;;;;;;9.16;56.36;97544.31;4484919;32;34299;-82
2023/01/19 07:51:11;;;;;;;;;;;;;;;9.17;56.27;97543.47;4484405;32;33602;-90
2023/01/19 07:53:40;;;;;;;;;;;;;;;8.70;57.05;97545.47;4484737;32;33063;-89
2023/01/19 07:56:08;;;;;;;;;;;;;;;8.85;56.37;97548.84;4484845;32;35135;-82
2023/01/19 07:58:35;;;;;;;;;;;;;;;8.52;57.89;97558.47;4484390;32;34779;-91
2023/01/19 08:01:09;;;;;;;;;;;;;;;9.57;54.71;97554.31;4484397;32;33523;-92
2023/01/19 08:03:37;;;;;;;;;;;;;;;8.69;57.79;97550.66;4484436;32;34586;-82
2023/01/19 08:06:04;;;;;;;;;;;;;;;9.06;56.92;97556.47;4470672;32;34485;-81
2023/01/19 08:08:32;;;;;;;;;;;;;;;9.01;56.85;97547.84;4484706;32;34814;-81
2023/01/19 08:10:59;;;;;;;;;;;;;;;8.75;57.25;97535.09;4484280;32;34111;-86
2023/01/19 08:13:27;;;;;;;;;;;;;;;9.46;55.57;97525.94;4484474;32;34236;-89
2023/01/19 08:15:54;;;;;;;;;;;;;;;9.44;55.66;97532.03;4484637;32;35357;-92
2023/01/19 08:18:21;;;;;;;;;;;;;;;8.47;58.68;97529.25;4484603;32;34108;-87
2023/01/19 08:20:49;;;;;;;;;;;;;;;8.76;57.79;97522.19;4484514;32;33458;-83
2023/01/19 08:23:16;;;;;;;;;;;;;;;8.41;58.22;97526.69;4484516;32;35027;-90
2023/01/19 08:25:44;;;;;;;;;;;;;;;8.59;58.71;97534.34;4484654;32;33954;-89
2023/01/19 08:28:12;;;;;;;;;;;;;;;8.88;57.03;97525.56;4484713;32;33910;-91
2023/01/19 08:30:42;;;;;;;;;;;;;;;8.60;58.32;97519.69;4484776;32;33953;-92
2023/01/19 08:33:13;;;;;;;;;;;;;;;8.96;56.81;97524.63;4470687;32;35008;-88
2023/01/19 08:35:41;;;;;;;;;;;;;;;8.51;58.33;97533.53;4484653;32;34472;-85
2023/01/19 08:38:08;;;;;;;;;;;;;;;7.96;60.03;97544.91;4469977;32;34046;-91
2023/01/19 08:40:36;;;;;;;;;;;;;;;8.85;57.73;97551.41;4484341;32;33421;-89
2023/01/19 08:43:08;;;;;;;;;;;;;;;7.21;61.68;97555.34;4484368;32;34045;-90
2023/01/19 08:45:35;;;;;;;;;;;;;;;7.72;60.96;97555.28;4469994;32;35516;-85
2023/01/19 08:48:03;;;;;;;;;;;;;;;7.07;62.62;97554.47;4470306;32;34957;-89
2023/01/19 08:50:31;;;;;;;;;;;;;;;6.79;64.38;97549.28;4470160;32;33531;-92
2023/01/19 08:52:59;;;;;;;;;;;;;;;6.98;63.69;97546.75;4484481;32;34292;-82
2023/01/19 08:55:27;;;;;;;;;;;;;;;7.17;62.80;97551.03;4470113;32;35234;-81
2023/01/19 08:57:56;;;;;;;;;;;;;;;6.28;66.29;97550.84;4470183;32;33993;-86
2023/01/19 09:00:25;;;;;;;;;;;;;;;6.58;64.90;97552.66;4484426;32;33590;-82
2023/01/19 09:02:53;;;;;;;;;;;;;;;6.11;66.40;97552.50;4484205;32;33941;-90
2023/01/19 09:05:20;;;;;;;;;;;;;;;7.36;62.76;97538.16;4469842;32;35248;-82
2023/01/19 09:07:48;;;;;;;;;;;;;;;7.79;61.41;97537.22;4483779;32;34386;-81
2023/01/19 09:10:15;;;;;;;;;;;;;;;8.65;58.58;97534.31;4484281;32;33483;-93
2023/01/19 09:12:43;;;;;;;;;;;;;;;8.29;59.64;97551.66;4484467;32;34034;-92
2023/01/19 09:15:12;;;;;;;;;;;;;;;7.91;60.71;97563.84;4484118;32;35116;-88
2023/01/19 09:17:43;;;;;;;;;;;;;;;7.53;61.29;97564.75;4484299;32;34191;-91
2023/01/19 09:20:10;;;;;;;;;;;;;;;8.07;60.04;97556.91;4484054;32;33246;-91
2023/01/19 09:22:38;;;;;;;;;;;;;;;7.06;62.77;97568.22;4484529;32;33892;-87
2023/01/19 09:25:06;;;;;;;;;;;;;;;7.16;62.95;97562.22;4484303;32;34005;-91
2023/01/19 09:27:33;;;;;;;;;;;;;;;6.91;63.25;97555.31;4469953;32;34328;-85
2023/01/19 09:30:01;;;;;;;;;;;;;;;7.67;61.34;97549.28;4484221;32;32875;-81
2023/01/19 09:32:28;;;;;;;;;;;;;;;7.02;62.10;97538.16;4469682;32;34236;-81
2023/01/19 09:34:56;;;;;;;;;;;;;;;6.86;62.90;97552.75;4484265;32;34121;-81
2023/01/19 09:37:23;;;;;;;;;;;;;;;7.75;60.59;97561.28;4484660;32;34532;-88
2023/01/19 09:39:50;;;;;;;;;;;;;;;8.14;59.37;97556.03;4484262;32;33681;-88
2023/01/19 09:42:39;;;;;;;;;;;;;;;7.78;59.89;97553.56;4484425;32;34487;-82
2023/01/19 09:45:06;;;;;;;;;;;;;;;7.32;61.67;97552.75;4484398;32;34930;-89
2023/01/19 09:47:33;;;;;;;;;;;;;;;7.35;61.41;97554.47;4484010;32;34951;-85
2023/01/19 09:50:03;;;;;;;;;;;;;;;7.13;62.35;97551.03;4484208;32;33809;-82
2023/01/19 09:52:32;;;;;;;;;;;;;;;7.14;61.91;97558.75;4470037;32;34107;-92
2023/01/19 09:54:59;;;;;;;;;;;;;;;7.70;60.35;97552.72;4469821;32;35199;-92
2023/01/19 09:57:26;;;;;;;;;;;;;;;6.17;64.27;97567.94;4483991;32;34571;-91
2023/01/19 09:59:58;;;;;;;;;;;;;;;6.70;63.18;97562.13;4469830;32;33679;-93
2023/01/19 10:02:27;;;;;;;;;;;;;;;7.13;61.91;97561.34;4483718;32;34225;-86
2023/01/19 10:05:01;;;;;;;;;;;;;;;6.73;62.09;97561.28;4483289;32;34118;-82
2023/01/19 10:08:02;;;;;;;;;;;;;;;7.03;61.02;97565.62;4483981;32;35032;-81
2023/01/19 10:10:30;;;;;;;;;;;;;;;6.73;62.13;97564.72;4472267;32;33086;-82
2023/01/19 10:13:16;;;;;;;;;;;;;;;6.55;62.94;97562.09;4483731;32;34212;-81
2023/01/19 10:15:59;;;;;;;;;;;;;;;6.05;63.44;97570.47;4483836;32;34292;-93
2023/01/19 10:18:46;;;;;;;;;;;;;;;5.74;65.27;97572.00;4483973;32;34984;-94
2023/01/19 10:21:15;;;;;;;;;;;;;;;5.92;64.77;97574.72;4483916;32;34027;-81
2023/01/19 10:23:49;;;;;;;;;;;;;;;6.48;63.62;97570.69;4469545;32;33856;-93
2023/01/19 10:26:19;;;;;;;;;;;;;;;6.79;60.96;97567.31;4483773;32;34418;-83
2023/01/19 10:28:47;;;;;;;;;;;;;;;6.44;62.71;97569.81;4469358;32;35088;-91
2023/01/19 10:31:15;;;;;;;;;;;;;;;7.20;60.93;97569.09;4483675;32;32837;-83
2023/01/19 10:33:43;;;;;;;;;;;;;;;6.49;63.14;97583.53;4483821;32;34502;-82
2023/01/19 10:36:17;;;;;;;;;;;;;;;6.57;62.59;97581.00;4483491;32;33802;-90
2023/01/19 10:38:45;;;;;;;;;;;;;;;6.15;62.96;97576.53;4469463;32;34408;-81
2023/01/19 10:41:27;;;;;;;;;;;;;;;6.99;60.88;97579.38;4483700;32;33415;-81
2023/01/19 10:43:59;;;;;;;;;;;;;;;7.39;59.10;97585.41;4470152;32;34869;-81
2023/01/19 10:46:27;;;;;;;;;;;;;;;6.71;61.36;97584.47;4469220;32;34415;-91
2023/01/19 10:48:54;;;;;;;;;;;;;;;7.02;60.34;97584.53;4483453;32;35064;-82
2023/01/19 10:51:22;;;;;;;;;;;;;;;7.64;58.57;97590.53;4483954;32;33976;-90
2023/01/19 10:53:59;;;;;;;;;;;;;;;6.62;60.53;97589.56;4469466;32;34078;-93
2023/01/19 10:56:29;;;;;;;;;;;;;;;7.91;57.05;97597.38;4483562;32;34750;-81
2023/01/19 10:58:57;;;;;;;;;;;;;;;7.03;59.71;97596.53;4469068;32;34621;-83
2023/01/19 11:01:26;;;;;;;;;;;;;;;7.39;58.33;97597.44;4469471;32;34199;-85
2023/01/19 11:03:55;;;;;;;;;;;;;;;8.23;56.02;97598.19;4483242;32;33936;-89
2023/01/19 11:06:24;;;;;;;;;;;;;;;6.69;59.98;97590.47;4483589;32;34148;-91
2023/01/19 11:08:52;;;;;;;;;;;;;;;7.38;58.04;97593.13;4483391;32;33983;-91
2023/01/19 11:11:20;;;;;;;;;;;;;;;6.42;61.28;97594.66;4469296;32;34211;-94
2023/01/19 11:14:05;;;;;;;;;;;;;;;6.24;61.52;97586.88;4469210;32;34089;-81
2023/01/19 11:16:33;;;;;;;;;;;;;;;6.67;60.12;97597.34;4468883;32;34334;-84
2023/01/19 11:19:02;;;;;;;;;;;;;;;7.49;57.82;97587.13;4469307;32;34250;-90
2023/01/19 11:21:29;;;;;;;;;;;;;;;7.59;57.44;97579.38;4483127;32;33472;-92
2023/01/19 11:23:57;;;;;;;;;;;;;;;7.91;56.53;97582.75;4469149;32;33938;-93
2023/01/19 11:26:28;;;;;;;;;;;;;;;7.16;58.69;97582.84;4468806;32;34378;-82
2023/01/19 11:28:56;;;;;;;;;;;;;;;6.53;60.30;97587.84;4483057;32;34038;-88
2023/01/19 11:31:32;;;;;;;;;;;;;;;6.80;60.80;97583.63;4483122;32;33240;-83
2023/01/19 11:34:00;;;;;;;;;;;;;;;7.06;59.94;97591.41;4469211;32;35274;-81
2023/01/19 11:36:31;;;;;;;;;;;;;;;6.99;60.19;97587.09;4483259;32;34429;-93
2023/01/19 11:39:11;;;;;;;;;;;;;;;7.34;59.08;97594.00;4468802;32;33532;-82
2023/01/19 11:41:38;;;;;;;;;;;;;;;7.50;58.38;97595.69;4483272;32;33789;-81
2023/01/19 11:44:09;;;;;;;;;;;;;;;7.23;59.35;97594.84;4468916;32;33318;-81
2023/01/19 11:46:36;;;;;;;;;;;;;;;7.31;59.62;97593.16;4482767;32;35194;-81
2023/01/19 11:49:04;;;;;;;;;;;;;;;7.54;58.61;97600.03;4468764;32;34345;-81
2023/01/19 11:51:39;;;;;;;;;;;;;;;6.90;60.86;97592.25;4469096;32;33448;-89
2023/01/19 11:54:18;;;;;;;;;;;;;;;7.32;58.97;97600.00;4468996;32;33676;-82
2023/01/19 11:56:46;;;;;;;;;;;;;;;6.91;60.41;97596.53;4468652;32;35210;-81
2023/01/19 11:59:13;;;;;;;;;;;;;;;6.53;62.00;97603.28;4467877;32;34011;-81
2023/01/19 12:01:43;;;;;;;;;;;;;;;5.62;64.77;97606.19;4468623;32;33008;-92
2023/01/19 12:04:14;;;;;;;;;;;;;;;6.57;62.02;97611.88;4468293;32;34235;-92
2023/01/19 12:06:49;;;;;;;;;;;;;;;5.92;63.65;97617.53;4468704;32;34282;-92
2023/01/19 12:09:18;;;;;;;;;;;;;;;5.50;64.93;97621.53;4468499;32;34142;-81
2023/01/19 12:11:48;;;;;;;;;;;;;;;6.17;62.84;97627.12;4468567;32;33399;-81
2023/01/19 12:14:19;;;;;;;;;;;;;;;5.73;64.19;97625.13;4468619;32;33910;-80
2023/01/19 12:16:47;;;;;;;;;;;;;;;6.50;62.35;97625.59;4482684;32;34146;-92
2023/01/19 12:19:15;;;;;;;;;;;;;;;5.94;64.23;97639.00;4482443;32;34439;-81
2023/01/19 12:21:43;;;;;;;;;;;;;;;5.45;65.00;97641.19;4468287;32;33280;-81
2023/01/19 12:24:12;;;;;;;;;;;;;;;6.27;62.66;97649.50;4468194;32;34698;-83
2023/01/19 12:26:42;;;;;;;;;;;;;;;6.10;63.72;97651.13;4482333;32;34548;-82
2023/01/19 12:29:13;;;;;;;;;;;;;;;5.80;64.59;97654.34;4483939;32;35107;-91
2023/01/19 12:31:41;;;;;;;;;;;;;;;6.19;63.40;97655.47;4484898;32;33488;-81
2023/01/19 12:34:25;;;;;;;;;;;;;;;6.16;63.93;97663.16;4484815;32;34576;-83
2023/01/19 12:36:53;;;;;;;;;;;;;;;6.68;62.25;97660.84;4484581;32;34274;-89
2023/01/19 12:39:20;;;;;;;;;;;;;;;6.53;62.00;97670.22;4470086;32;33986;-88
2023/01/19 12:41:49;;;;;;;;;;;;;;;6.93;60.79;97661.78;4469987;32;33389;-92
2023/01/19 12:44:21;;;;;;;;;;;;;;;6.90;60.80;97656.66;4470685;32;34510;-84
2023/01/19 12:47:06;;;;;;;;;;;;;;;6.22;62.38;97671.78;4470348;32;34854;-91
2023/01/19 12:49:36;;;;;;;;;;;;;;;5.49;65.31;97682.38;4471567;32;33960;-85
2023/01/19 12:52:21;;;;;;;;;;;;;;;6.75;60.94;97676.34;4484357;32;33915;-92
2023/01/19 12:54:49;;;;;;;;;;;;;;;5.79;63.92;97692.00;4470225;32;33974;-81
2023/01/19 12:57:21;;;;;;;;;;;;;;;6.11;62.70;97673.44;4469978;32;34499;-81
2023/01/19 12:59:59;;;;;;;;;;;;;;;4.88;66.61;97692.84;4484048;32;34829;-81
2023/01/19 13:02:26;;;;;;;;;;;;;;;5.00;66.46;97689.59;4469864;32;33518;-85
2023/01/19 13:05:06;;;;;;;;;;;;;;;6.03;63.31;97695.69;4484169;32;34254;-81
2023/01/19 13:07:51;;;;;;;;;;;;;;;5.83;64.61;97704.06;4484115;32;34350;-81
2023/01/19 13:10:37;;;;;;;;;;;;;;;6.36;62.49;97717.31;4483944;32;34324;-93
2023/01/19 13:13:13;;;;;;;;;;;;;;;6.10;63.21;97718.03;4485880;32;33739;-89